createdAt,value
2023-03-15T00:00:12.611Z,3.80
2023-03-15T00:03:04.201Z,3.60
2023-03-15T00:05:52.846Z,4.50
2023-03-15T00:08:41.086Z,4.38
2023-03-15T00:11:31.127Z,4.13
2023-03-15T00:14:19.444Z,4.38
2023-03-15T00:17:22.039Z,4.18
2023-03-15T00:20:15.486Z,4.28
2023-03-15T00:23:06.713Z,4.50
2023-03-15T00:25:55.908Z,4.38
2023-03-15T00:28:46.387Z,4.10
2023-03-15T00:31:36.197Z,3.72
2023-03-15T00:34:27.942Z,3.72
2023-03-15T00:37:20.046Z,4.03
2023-03-15T00:40:08.997Z,4.10
2023-03-15T00:42:58.067Z,4.00
2023-03-15T00:45:46.334Z,4.95
2023-03-15T00:48:37.813Z,4.20
2023-03-15T00:51:25.820Z,3.63
2023-03-15T00:54:14.027Z,3.95
2023-03-15T00:57:03.288Z,3.95
2023-03-15T00:59:53.315Z,4.38
2023-03-15T01:02:41.495Z,3.75
2023-03-15T01:05:29.382Z,3.40
2023-03-15T01:08:17.324Z,4.07
2023-03-15T01:11:08.320Z,3.97
2023-03-15T01:13:59.242Z,4.32
2023-03-15T01:16:47.155Z,4.55
2023-03-15T01:19:35.187Z,4.00
2023-03-15T01:22:23.467Z,4.10
2023-03-15T01:25:11.476Z,4.20
2023-03-15T01:27:59.501Z,4.47
2023-03-15T01:30:52.641Z,3.67
2023-03-15T01:33:40.607Z,3.75
2023-03-15T01:36:28.644Z,5.15
2023-03-15T01:39:16.778Z,3.40
2023-03-15T01:42:04.946Z,4.10
2023-03-15T01:45:04.436Z,4.75
2023-03-15T01:47:53.696Z,5.03
2023-03-15T01:50:42.153Z,4.85
2023-03-15T01:53:33.166Z,4.03
2023-03-15T01:56:22.953Z,4.10
2023-03-15T01:59:22.328Z,4.30
2023-03-15T02:02:14.845Z,4.20
2023-03-15T02:05:11.478Z,4.07
2023-03-15T02:08:00.110Z,4.50
2023-03-15T02:10:52.627Z,4.35
2023-03-15T02:13:41.489Z,4.28
2023-03-15T02:16:30.749Z,6.25
2023-03-15T02:19:34.201Z,4.03
2023-03-15T02:22:57.135Z,4.75
2023-03-15T02:26:01.998Z,4.65
2023-03-15T02:28:51.317Z,4.82
2023-03-15T02:31:41.790Z,4.10
2023-03-15T02:34:29.638Z,5.25
2023-03-15T02:37:18.207Z,4.50
2023-03-15T02:40:18.508Z,3.97
2023-03-15T02:43:16.991Z,4.68
2023-03-15T02:46:08.461Z,3.75
2023-03-15T02:48:56.876Z,4.53
2023-03-15T02:51:45.102Z,4.22
2023-03-15T02:54:36.708Z,4.55
2023-03-15T02:57:24.694Z,4.10
2023-03-15T03:00:14.589Z,3.85
2023-03-15T03:03:06.003Z,4.88
2023-03-15T03:05:53.799Z,4.28
2023-03-15T03:08:41.809Z,4.85
2023-03-15T03:11:29.879Z,4.07
2023-03-15T03:14:17.794Z,4.10
2023-03-15T03:17:05.688Z,5.75
2023-03-15T03:19:53.596Z,4.90
2023-03-15T03:22:42.286Z,4.22
2023-03-15T03:25:30.143Z,4.43
2023-03-15T03:28:18.104Z,4.05
2023-03-15T03:31:06.363Z,4.22
2023-03-15T03:33:56.798Z,4.40
2023-03-15T03:36:44.796Z,3.58
2023-03-15T03:39:32.873Z,4.80
2023-03-15T03:42:20.884Z,4.07
2023-03-15T03:45:09.459Z,4.35
2023-03-15T03:47:57.477Z,4.32
2023-03-15T03:50:45.340Z,5.22
2023-03-15T03:53:33.338Z,4.95
2023-03-15T03:56:21.390Z,4.53
2023-03-15T03:59:09.288Z,4.47
2023-03-15T04:01:57.105Z,4.55
2023-03-15T04:04:45.211Z,4.60
2023-03-15T04:07:33.162Z,5.30
2023-03-15T04:10:26.935Z,5.28
2023-03-15T04:16:04.012Z,5.50
2023-03-15T04:18:52.374Z,4.70
2023-03-15T04:21:47.176Z,4.80
2023-03-15T04:24:35.576Z,4.90
2023-03-15T04:27:23.511Z,5.75
2023-03-15T04:30:12.552Z,4.55
2023-03-15T04:33:00.641Z,5.30
2023-03-15T04:35:48.704Z,6.53
2023-03-15T04:38:36.938Z,5.63
2023-03-15T04:41:28.087Z,5.53
2023-03-15T04:44:18.251Z,7.80
2023-03-15T04:47:06.394Z,7.32
2023-03-15T04:49:56.467Z,5.00
2023-03-15T04:52:44.272Z,6.00
2023-03-15T04:55:32.530Z,6.00
2023-03-15T04:58:20.733Z,5.50
2023-03-15T05:01:08.789Z,5.32
2023-03-15T05:03:57.888Z,4.78
2023-03-15T05:06:45.878Z,5.20
2023-03-15T05:09:39.699Z,4.30
2023-03-15T05:12:28.906Z,4.95
2023-03-15T05:15:17.483Z,5.28
2023-03-15T05:18:05.451Z,5.53
2023-03-15T05:20:55.760Z,4.95
2023-03-15T05:23:43.702Z,4.78
2023-03-15T05:26:31.642Z,4.68
2023-03-15T05:29:19.951Z,4.45
2023-03-15T05:32:08.015Z,4.80
2023-03-15T05:34:56.102Z,5.85
2023-03-15T05:37:44.106Z,5.03
2023-03-15T05:40:33.183Z,6.18
2023-03-15T05:43:22.270Z,5.03
2023-03-15T05:46:10.754Z,5.97
2023-03-15T05:48:58.876Z,5.50
2023-03-15T05:51:46.791Z,6.53
2023-03-15T05:54:34.745Z,8.48
2023-03-15T05:57:22.707Z,7.93
2023-03-15T06:00:11.666Z,8.63
2023-03-15T06:02:59.807Z,9.50
2023-03-15T06:05:48.251Z,8.75
2023-03-15T06:08:36.171Z,9.32
2023-03-15T06:11:24.143Z,8.10
2023-03-15T06:14:12.122Z,11.38
2023-03-15T06:17:00.307Z,11.07
2023-03-15T06:19:48.896Z,12.15
2023-03-15T06:22:36.736Z,13.02
2023-03-15T06:25:24.783Z,12.00
2023-03-15T06:28:13.055Z,11.30
2023-03-15T06:31:08.549Z,11.90
2023-03-15T06:34:01.531Z,13.10
2023-03-15T06:37:01.826Z,8.93
2023-03-15T06:40:00.174Z,11.70
2023-03-15T06:42:55.070Z,11.77
2023-03-15T06:45:46.520Z,12.43
2023-03-15T06:48:54.032Z,13.25
2023-03-15T06:51:55.589Z,12.85
2023-03-15T06:54:49.261Z,12.43
2023-03-15T06:57:51.777Z,12.52
2023-03-15T07:00:41.409Z,12.48
2023-03-15T07:03:31.204Z,13.18
2023-03-15T07:06:22.830Z,14.35
2023-03-15T07:12:42.949Z,16.15
2023-03-15T07:15:31.413Z,15.25
2023-03-15T07:18:25.513Z,17.90
2023-03-15T07:21:13.734Z,16.73
2023-03-15T07:24:02.286Z,20.85
2023-03-15T07:26:54.832Z,19.80
2023-03-15T07:29:42.991Z,20.33
2023-03-15T07:32:40.221Z,19.45
2023-03-15T07:35:31.526Z,20.35
2023-03-15T07:38:41.377Z,19.88
2023-03-15T07:41:31.564Z,16.02
2023-03-15T07:44:53.793Z,16.13
2023-03-15T07:47:42.197Z,16.25
2023-03-15T07:50:30.730Z,14.45
2023-03-15T07:53:28.117Z,13.32
2023-03-15T07:56:21.764Z,13.82
2023-03-15T07:59:10.323Z,13.77
2023-03-15T08:02:00.837Z,13.95
2023-03-15T08:04:53.282Z,12.35
2023-03-15T08:07:54.258Z,11.95
2023-03-15T08:10:43.625Z,9.95
2023-03-15T08:14:22.785Z,10.77
2023-03-15T08:24:50.758Z,11.88
2023-03-15T08:27:40.332Z,11.90
2023-03-15T08:30:29.104Z,9.98
2023-03-15T08:33:20.602Z,10.10
2023-03-15T08:36:11.723Z,12.57
2023-03-15T08:39:09.264Z,10.40
2023-03-15T08:42:03.386Z,10.50
2023-03-15T08:44:54.285Z,11.15
2023-03-15T08:47:46.319Z,10.60
2023-03-15T08:50:34.410Z,10.70
2023-03-15T08:53:23.639Z,10.15
2023-03-15T08:56:12.758Z,10.02
2023-03-15T08:59:01.946Z,8.90
2023-03-15T09:01:50.704Z,8.20
2023-03-15T09:04:39.436Z,8.30
2023-03-15T09:07:27.912Z,8.15
2023-03-15T09:10:18.231Z,8.52
2023-03-15T09:13:06.622Z,7.68
2023-03-15T09:15:57.150Z,7.07
2023-03-15T09:18:54.809Z,7.03
2023-03-15T09:21:45.495Z,7.47
2023-03-15T09:24:33.933Z,8.60
2023-03-15T09:27:22.221Z,7.65
2023-03-15T09:30:13.702Z,6.88
2023-03-15T09:33:02.289Z,6.00
2023-03-15T09:35:53.800Z,4.90
2023-03-15T09:38:44.589Z,5.00
2023-03-15T09:41:48.735Z,5.15
2023-03-15T09:44:49.019Z,4.68
2023-03-15T09:48:11.949Z,4.20
2023-03-15T09:51:18.204Z,4.00
2023-03-15T09:54:41.317Z,4.88
2023-03-15T09:57:53.948Z,3.53
2023-03-15T10:01:08.562Z,4.72
2023-03-15T10:06:55.212Z,4.15
2023-03-15T10:09:44.633Z,4.10
2023-03-15T10:12:44.114Z,4.60
2023-03-15T10:16:08.451Z,4.30
2023-03-15T10:19:35.089Z,4.03
2023-03-15T10:22:52.179Z,3.33
2023-03-15T10:25:43.684Z,2.97
2023-03-15T10:28:34.860Z,2.28
2023-03-15T10:31:44.164Z,2.55
2023-03-15T10:34:33.408Z,2.50
2023-03-15T10:37:25.210Z,2.47
2023-03-15T10:40:18.292Z,2.10
2023-03-15T10:43:22.472Z,2.30
2023-03-15T10:46:13.430Z,1.75
2023-03-15T10:49:15.058Z,1.67
2023-03-15T10:52:07.018Z,1.80
2023-03-15T10:55:02.502Z,1.98
2023-03-15T10:57:57.137Z,1.60
2023-03-15T11:01:10.052Z,1.63
2023-03-15T11:04:33.130Z,1.70
2023-03-15T11:07:25.702Z,1.50
2023-03-15T11:10:26.472Z,1.95
2023-03-15T11:13:25.071Z,1.50
2023-03-15T11:16:13.194Z,1.25
2023-03-15T11:19:17.086Z,1.80
2023-03-15T11:22:05.434Z,1.95
2023-03-15T11:24:58.818Z,1.92
2023-03-15T11:27:54.038Z,1.55
2023-03-15T11:30:48.631Z,2.13
2023-03-15T11:34:01.682Z,2.17
2023-03-15T11:37:07.581Z,2.30
2023-03-15T11:40:16.731Z,2.30
2023-03-15T11:43:51.281Z,2.50
2023-03-15T11:46:49.105Z,3.63
2023-03-15T11:49:56.232Z,2.38
2023-03-15T11:52:50.709Z,2.75
2023-03-15T11:55:39.005Z,2.55
2023-03-15T11:58:47.175Z,3.45
2023-03-15T12:01:37.073Z,3.00
2023-03-15T12:04:31.878Z,2.50
2023-03-15T12:07:20.005Z,2.92
2023-03-15T12:10:32.336Z,3.22
2023-03-15T12:13:26.764Z,3.10
2023-03-15T12:16:14.970Z,3.40
2023-03-15T12:19:22.191Z,2.90
2023-03-15T12:22:20.780Z,2.85
2023-03-15T12:25:54.377Z,2.63
2023-03-15T12:33:07.929Z,2.63
2023-03-15T12:36:11.710Z,2.95
2023-03-15T12:39:26.115Z,2.95
2023-03-15T12:42:34.361Z,3.00
2023-03-15T12:45:37.558Z,3.13
2023-03-15T12:48:27.591Z,2.40
2023-03-15T12:51:58.172Z,2.28
2023-03-15T12:55:28.147Z,1.70
2023-03-15T12:58:30.624Z,2.08
2023-03-15T13:01:19.668Z,2.97
2023-03-15T13:04:31.142Z,1.85
2023-03-15T13:07:51.404Z,1.95
2023-03-15T13:11:06.689Z,1.30
2023-03-15T13:14:52.245Z,1.63
2023-03-15T13:20:55.939Z,1.90
2023-03-15T13:27:17.681Z,2.25
2023-03-15T13:30:42.758Z,2.00
2023-03-15T13:33:33.414Z,2.35
2023-03-15T13:36:55.988Z,1.70
2023-03-15T13:40:15.064Z,1.75
2023-03-15T13:43:27.777Z,1.98
2023-03-15T13:46:19.757Z,1.95
2023-03-15T13:49:12.715Z,1.90
2023-03-15T13:52:18.951Z,2.42
2023-03-15T13:55:08.512Z,2.30
2023-03-15T13:58:09.319Z,2.35
2023-03-15T14:01:02.614Z,2.20
2023-03-15T14:04:19.769Z,2.50
2023-03-15T14:07:39.809Z,2.60
2023-03-15T14:15:03.421Z,2.45
2023-03-15T14:18:01.213Z,2.65
2023-03-15T14:21:09.395Z,2.45
2023-03-15T14:24:06.975Z,1.95
2023-03-15T14:27:01.472Z,2.03
2023-03-15T14:30:02.368Z,1.60
2023-03-15T14:37:42.623Z,1.80
2023-03-15T14:40:40.543Z,1.90
2023-03-15T14:43:31.941Z,2.60
2023-03-15T14:46:26.331Z,1.95
2023-03-15T14:49:32.828Z,2.15
2023-03-15T14:52:36.814Z,1.85
2023-03-15T14:56:05.736Z,1.90
2023-03-15T14:59:24.712Z,2.10
2023-03-15T15:05:52.968Z,1.70
2023-03-15T15:08:46.102Z,1.63
2023-03-15T15:11:34.676Z,1.75
2023-03-15T15:14:23.289Z,2.05
2023-03-15T15:17:12.269Z,2.40
2023-03-15T15:20:14.545Z,2.22
2023-03-15T15:23:05.875Z,2.13
2023-03-15T15:26:05.629Z,2.20
2023-03-15T15:28:57.588Z,2.47
2023-03-15T15:31:49.865Z,2.03
2023-03-15T15:34:40.653Z,1.90
2023-03-15T15:37:29.357Z,2.30
2023-03-15T15:40:32.514Z,2.67
2023-03-15T15:43:21.398Z,2.47
2023-03-15T15:46:14.210Z,2.78
2023-03-15T15:49:04.526Z,2.75
2023-03-15T15:51:52.899Z,2.28
2023-03-15T15:54:41.112Z,2.25
2023-03-15T15:57:29.242Z,2.75
2023-03-15T16:00:21.969Z,2.40
2023-03-15T16:03:18.408Z,2.50
2023-03-15T16:06:07.647Z,3.10
2023-03-15T16:08:56.393Z,2.67
2023-03-15T16:11:44.865Z,2.72
2023-03-15T16:14:35.858Z,2.47
2023-03-15T16:17:31.667Z,2.75
2023-03-15T16:20:31.050Z,3.00
2023-03-15T16:23:26.488Z,2.63
2023-03-15T16:26:26.249Z,2.70
2023-03-15T16:29:27.036Z,2.80
2023-03-15T16:32:43.567Z,3.10
2023-03-15T16:35:44.281Z,3.15
2023-03-15T16:38:42.975Z,3.28
2023-03-15T16:44:59.624Z,3.53
2023-03-15T16:49:15.383Z,3.78
2023-03-15T16:57:35.786Z,3.08
2023-03-15T17:00:25.646Z,3.40
2023-03-15T17:03:18.541Z,3.30
2023-03-15T17:06:23.606Z,3.28
2023-03-15T17:09:23.639Z,3.50
2023-03-15T17:12:32.087Z,4.07
2023-03-15T17:15:27.683Z,3.38
2023-03-15T17:18:22.171Z,3.33
2023-03-15T17:21:17.064Z,3.35
2023-03-15T17:24:12.983Z,3.30
2023-03-15T17:27:01.293Z,3.10
2023-03-15T17:29:49.576Z,3.65
2023-03-15T17:32:37.651Z,3.35
2023-03-15T17:35:41.359Z,3.15
2023-03-15T17:38:33.016Z,3.42
2023-03-15T17:41:25.466Z,3.40
2023-03-15T17:44:14.024Z,3.67
2023-03-15T17:47:06.310Z,4.22
2023-03-15T17:49:55.345Z,4.57
2023-03-15T17:52:45.075Z,4.55
2023-03-15T17:55:37.638Z,4.07
2023-03-15T17:58:27.796Z,4.57
2023-03-15T18:01:22.782Z,4.30
2023-03-15T18:04:15.164Z,4.43
2023-03-15T18:07:03.481Z,4.20
2023-03-15T18:09:51.709Z,4.63
2023-03-15T18:12:41.619Z,3.92
2023-03-15T18:15:32.735Z,4.00
2023-03-15T18:18:21.862Z,4.65
2023-03-15T18:21:22.735Z,4.47
2023-03-15T18:24:14.655Z,6.43
2023-03-15T18:27:03.191Z,7.28
2023-03-15T18:29:52.771Z,5.68
2023-03-15T18:32:41.203Z,5.25
2023-03-15T18:35:33.892Z,5.18
2023-03-15T18:38:22.796Z,5.78
2023-03-15T18:41:21.624Z,5.38
2023-03-15T18:44:10.914Z,6.40
2023-03-15T18:46:59.203Z,5.40
2023-03-15T18:49:47.581Z,5.50
2023-03-15T18:52:36.647Z,5.80
2023-03-15T18:58:32.094Z,5.20
2023-03-15T19:01:23.238Z,5.20
2023-03-15T19:04:11.546Z,4.60
2023-03-15T19:06:59.798Z,6.53
2023-03-15T19:09:52.465Z,6.63
2023-03-15T19:12:41.932Z,8.18
2023-03-15T19:15:29.710Z,10.05
2023-03-15T19:18:20.458Z,8.80
2023-03-15T19:21:08.719Z,9.75
2023-03-15T19:24:09.652Z,8.77
2023-03-15T19:26:59.698Z,10.25
2023-03-15T19:32:51.078Z,11.15
2023-03-15T19:38:49.415Z,10.02
2023-03-15T19:41:39.968Z,9.55
2023-03-15T19:47:30.566Z,9.60
2023-03-15T19:50:18.775Z,9.98
2023-03-15T19:53:06.827Z,9.00
2023-03-15T19:55:55.527Z,8.95
2023-03-15T19:58:44.113Z,9.60
2023-03-15T20:01:33.333Z,8.93
2023-03-15T20:04:21.602Z,8.65
2023-03-15T20:07:11.200Z,10.43
2023-03-15T20:09:59.409Z,11.25
2023-03-15T20:12:48.088Z,12.02
2023-03-15T20:15:39.071Z,10.98
2023-03-15T20:18:26.925Z,11.18
2023-03-15T20:21:15.128Z,10.55
2023-03-15T20:24:04.083Z,9.32
2023-03-15T20:26:53.205Z,9.27
2023-03-15T20:29:41.265Z,9.95
2023-03-15T20:32:44.600Z,8.55
2023-03-15T20:35:36.052Z,6.20
2023-03-15T20:38:34.746Z,7.50
2023-03-15T20:41:26.270Z,7.78
2023-03-15T20:44:22.209Z,8.73
2023-03-15T20:47:11.329Z,7.70
2023-03-15T20:50:03.927Z,7.88
2023-03-15T20:52:51.838Z,7.53
2023-03-15T20:55:39.893Z,7.53
2023-03-15T20:58:28.338Z,7.38
2023-03-15T21:01:17.461Z,7.38
2023-03-15T21:04:08.565Z,6.40
2023-03-15T21:06:56.629Z,8.52
2023-03-15T21:09:45.687Z,7.30
2023-03-15T21:12:36.968Z,7.45
2023-03-15T21:15:24.872Z,6.25
2023-03-15T21:22:02.212Z,6.80
2023-03-15T21:24:55.856Z,6.78
2023-03-15T21:27:45.808Z,6.82
2023-03-15T21:30:36.397Z,7.50
2023-03-15T21:33:35.061Z,8.98
2023-03-15T21:36:26.118Z,7.85
2023-03-15T21:39:20.808Z,9.70
2023-03-15T21:42:09.629Z,10.05
2023-03-15T21:45:02.985Z,11.00
2023-03-15T21:47:52.990Z,10.93
2023-03-15T21:50:41.596Z,11.13
2023-03-15T21:53:33.389Z,10.75
2023-03-15T21:56:26.276Z,11.75
2023-03-15T21:59:16.204Z,11.30
2023-03-15T22:02:08.633Z,12.43
2023-03-15T22:04:56.981Z,12.98
2023-03-15T22:07:46.737Z,14.05
2023-03-15T22:10:34.974Z,13.40
2023-03-15T22:13:23.490Z,13.63
2023-03-15T22:16:13.693Z,15.13
2023-03-15T22:19:03.479Z,13.05
2023-03-15T22:21:51.604Z,14.68
2023-03-15T22:24:39.927Z,12.70
2023-03-15T22:27:27.774Z,13.15
2023-03-15T22:30:17.729Z,12.20
2023-03-15T22:33:05.752Z,13.13
2023-03-15T22:36:00.523Z,13.55
2023-03-15T22:38:50.304Z,11.30
2023-03-15T22:41:38.283Z,10.32
2023-03-15T22:44:27.169Z,10.27
2023-03-15T22:47:17.402Z,10.60
2023-03-15T22:50:05.815Z,8.77
2023-03-15T22:52:57.839Z,9.35
2023-03-15T22:55:49.469Z,9.20
2023-03-15T22:58:38.609Z,8.82
2023-03-15T23:01:26.710Z,7.85
2023-03-15T23:04:14.674Z,8.40
2023-03-15T23:07:03.243Z,8.10
2023-03-15T23:09:52.087Z,7.35
2023-03-15T23:12:40.577Z,8.30
2023-03-15T23:15:29.579Z,9.68
2023-03-15T23:18:19.122Z,10.18
2023-03-15T23:21:14.541Z,10.07
2023-03-15T23:27:06.172Z,9.68
2023-03-15T23:29:55.495Z,10.00
2023-03-15T23:32:44.428Z,9.77
2023-03-15T23:35:32.577Z,9.88
2023-03-15T23:38:20.790Z,9.35
2023-03-15T23:41:09.103Z,9.70
2023-03-15T23:43:57.268Z,9.98
2023-03-15T23:46:45.321Z,9.32
2023-03-15T23:49:34.140Z,9.40
2023-03-15T23:52:25.395Z,10.15
2023-03-15T23:55:16.712Z,8.57
2023-03-15T23:58:11.084Z,9.15
